Terminal Aerodrome Forecast
Issued by NWS Green Bay, WI

Home | Current Version | Previous Version | Text Only | Print | Product List | Glossary Off
Versions: 1 2 3 4 5 6 7 8 9 10 11 12 13 14 15 16 17 18 19 20 21 22 23 24 25 26 27 28 29 30 31

000
FTUS43 KGRB 222300
TAFGRB
TAF
KGRB 222330Z 2300/2324 12007KT P6SM SCT090
     FM230800 16004KT P6SM SCT070 BKN250
      TEMPO 2308/2312 3SM BR
     FM231600 18008KT P6SM SCT035 OVC050
     FM232100 19009KT 5SM -SHRA BKN030=

USA.gov is the U.S. government's official web portal to all federal, state and local government web resources and services.